Airfield :
LOGIN :

Register | Disclaimer

   EN    FR    IT 

 










Legend :    VFR   Marginal VFR   IFR   Intensive IFR   Very Intensive IFR
Visi :
Ceiling :
>= 8 km
>= 3000ft
5 to 8 km
1000 to 3000 ft
1500m to 5 km
500 to 1000 ft
800 to 1500m
200 to 500 ft
< 800m
< 200 ft
Symbols :   Thunderstorms  Fog  Heavy snow  Heavy precipitations  Wind > 20 kt
SIGMETs :     Misc.  Thunderstorms  Icing  Turbulence  Mountain Waves  Volcanic Ashes






- Airport Elevation : 13 ft
- IATA code : OST


EBOS - Oostend bruges Int.

CURRENT METAR :
  • 100850Z 19009KT CAVOK 02/M01 Q1023 NOSIG

EXPIRED METARs :
  • 100820Z 19008KT CAVOK 02/M01 Q1024 NOSIG
  • 100750Z 18009KT CAVOK 02/M01 Q1024 NOSIG
  • 100720Z 18007KT CAVOK 01/M01 Q1024 NOSIG
  • 100650Z 19007KT CAVOK 01/M01 Q1024 NOSIG
  • 100620Z 19005KT CAVOK 01/M02 Q1024 NOSIG

TAF TAF EBOS
Valid from the 10 at 06:00 until the 11 at 12:00 UTC


100500Z 1006/1112 18010KT CAVOK
BECMG 1010/1012 19017G28KT
BECMG 1017/1019 SCT009 BKN014
TEMPO 1100/1102 4500 RA BKN008
BECMG 1102/1104 26012KT SCT015 SCT030



MET'MAP, your aeronautical weather chart ! - Copyright ORBIFLY December 2007 - Disclaimer

ORBIFLY MET'MAP TEAM :

Programming & Development : Alexandra Zaïnal
Concept & original design : Baudouin d'Aumeries
Assistance for programming : Marc-Olivier Méhu
Technical & hardware support : Manuel Goepfert

Contact : metmap@orbifly.com




SOURCES & CREDITS :

   NOAA